Time;durP1;ratioP1;P1;durP2;ratioP2;P2;SDS_P1;SDS_P2;PMS_P1;PMS_P2;Temp;Humidity;BMP_temperature;BMP_pressure;BME280_temperature;BME280_humidity;BME280_pressure;Samples;Min_cycle;Max_cycle;Signal;HPM_P1;HPM_P2
2021/09/18 00:01:49;;;;;;;6.82;4.60;;;;;;;9.54;94.90;101863.94;4804339;29;20059;-80
2021/09/18 00:04:15;;;;;;;8.43;4.85;;;;;;;9.58;95.23;101867.94;4805175;30;20458;-80
2021/09/18 00:06:40;;;;;;;6.13;4.43;;;;;;;9.57;94.59;101868.09;4791955;29;20935;-79
2021/09/18 00:09:06;;;;;;;6.22;4.35;;;;;;;9.57;95.10;101862.72;4792207;29;20034;-79
2021/09/18 00:11:31;;;;;;;7.93;6.32;;;;;;;9.53;94.36;101858.69;4775061;30;20046;-79
2021/09/18 00:13:57;;;;;;;8.77;5.95;;;;;;;9.58;94.52;101859.88;4792006;30;20043;-78
2021/09/18 00:16:23;;;;;;;7.43;4.90;;;;;;;9.59;94.76;101872.31;4786022;30;20378;-79
2021/09/18 00:18:49;;;;;;;7.47;4.60;;;;;;;9.61;95.05;101869.47;4792103;30;20023;-79
2021/09/18 00:21:15;;;;;;;5.90;4.47;;;;;;;9.55;94.74;101864.75;4791086;30;20043;-79
2021/09/18 00:23:40;;;;;;;6.20;5.10;;;;;;;9.58;94.92;101875.19;4791773;30;20041;-79
2021/09/18 00:26:06;;;;;;;8.30;4.40;;;;;;;9.60;94.84;101876.69;4790154;29;20039;-79
2021/09/18 00:28:31;;;;;;;7.82;4.35;;;;;;;9.50;94.77;101862.56;4790741;30;20031;-79
2021/09/18 00:30:57;;;;;;;6.32;4.70;;;;;;;9.50;94.67;101861.72;4774012;30;20031;-78
2021/09/18 00:33:22;;;;;;;6.05;4.18;;;;;;;9.57;95.24;101874.34;4775285;30;20085;-77
2021/09/18 00:35:47;;;;;;;6.13;4.35;;;;;;;9.58;95.21;101883.25;4774394;30;20136;-78
2021/09/18 00:38:13;;;;;;;6.00;4.38;;;;;;;9.55;94.72;101887.09;4774424;30;20071;-79
2021/09/18 00:40:39;;;;;;;7.20;4.88;;;;;;;9.56;95.10;101898.66;4775045;30;20054;-78
2021/09/18 00:43:05;;;;;;;7.50;4.60;;;;;;;9.59;94.45;101892.97;4774644;30;20513;-79
2021/09/18 00:45:31;;;;;;;7.25;4.63;;;;;;;9.63;95.11;101891.63;4788316;29;20031;-78
2021/09/18 00:47:56;;;;;;;7.30;4.47;;;;;;;9.64;94.86;101893.31;4791417;29;20031;-79
2021/09/18 00:50:22;;;;;;;6.53;4.50;;;;;;;9.65;94.81;101890.47;4790946;29;20481;-79
2021/09/18 00:52:49;;;;;;;8.23;4.50;;;;;;;9.64;95.11;101894.16;4768068;30;20367;-79
2021/09/18 00:55:14;;;;;;;5.32;4.05;;;;;;;9.58;95.39;101885.94;4795968;29;20494;-80
2021/09/18 00:57:41;;;;;;;6.63;4.40;;;;;;;9.52;94.92;101873.97;4786929;30;20146;-78
2021/09/18 01:00:09;;;;;;;6.97;4.40;;;;;;;9.64;95.32;101901.38;4790877;30;20064;-78
2021/09/18 01:02:35;;;;;;;5.75;4.63;;;;;;;9.52;95.27;101875.84;4783173;30;20554;-78
2021/09/18 01:05:01;;;;;;;7.15;4.95;;;;;;;9.63;95.52;101894.31;4775311;30;20066;-78
2021/09/18 01:07:26;;;;;;;6.72;4.38;;;;;;;9.65;94.81;101903.91;4792449;29;20062;-78
2021/09/18 01:09:52;;;;;;;5.47;4.38;;;;;;;9.64;94.33;101894.16;4801598;29;20055;-79
2021/09/18 01:12:17;;;;;;;6.95;4.78;;;;;;;9.63;95.57;101899.69;4791675;30;20035;-78
2021/09/18 01:14:47;;;;;;;7.25;4.43;;;;;;;9.61;95.24;101888.28;4760204;30;20050;-79
2021/09/18 01:17:13;;;;;;;5.18;4.45;;;;;;;9.65;95.02;101905.75;4788343;30;20041;-79
2021/09/18 01:19:39;;;;;;;6.45;4.88;;;;;;;9.64;95.68;101906.75;4774218;30;20031;-79
2021/09/18 01:22:07;;;;;;;6.72;4.40;;;;;;;9.57;95.27;101897.66;4790720;30;20470;-79
2021/09/18 01:24:33;;;;;;;5.53;4.50;;;;;;;9.64;95.79;101906.75;4790228;29;20043;-79
2021/09/18 01:26:59;;;;;;;6.65;4.90;;;;;;;9.65;95.76;101905.75;4790156;30;20050;-78
2021/09/18 01:29:25;;;;;;;6.45;4.57;;;;;;;9.65;95.70;101909.28;4789493;30;20035;-79
2021/09/18 01:31:50;;;;;;;6.75;4.85;;;;;;;9.64;95.49;101912.97;4784661;29;20055;-79
2021/09/18 01:34:21;;;;;;;6.10;4.75;;;;;;;9.59;95.47;101906.41;4788924;30;20035;-78
2021/09/18 01:36:48;;;;;;;9.73;4.95;;;;;;;9.59;96.02;101903.72;4790052;30;20045;-79
2021/09/18 01:39:15;;;;;;;8.27;4.53;;;;;;;9.57;95.90;101905.72;4790275;29;20148;-78
2021/09/18 01:41:43;;;;;;;6.88;4.53;;;;;;;9.59;96.01;101901.88;4789668;29;20042;-79
2021/09/18 01:44:10;;;;;;;5.90;4.55;;;;;;;9.53;95.60;101899.00;4789867;29;20035;-79
2021/09/18 01:46:35;;;;;;;6.53;5.10;;;;;;;9.57;95.73;101905.72;4788691;30;20085;-79
2021/09/18 01:49:01;;;;;;;8.15;4.70;;;;;;;9.53;95.55;101905.22;4774976;29;20493;-79
2021/09/18 01:51:29;;;;;;;7.57;4.60;;;;;;;9.46;95.93;101896.13;4790136;30;20058;-80
2021/09/18 01:53:55;;;;;;;7.95;4.68;;;;;;;9.50;95.97;101902.00;4791769;30;20046;-78
2021/09/18 01:56:20;;;;;;;6.78;4.55;;;;;;;9.53;96.56;101909.75;4789876;30;20099;-79
2021/09/18 01:58:46;;;;;;;5.15;4.40;;;;;;;9.46;95.78;101888.06;4790686;29;20031;-79
2021/09/18 02:01:11;;;;;;;8.93;4.43;;;;;;;9.52;95.77;101900.03;4790746;30;20076;-79
2021/09/18 02:03:36;;;;;;;6.53;4.25;;;;;;;9.51;96.10;101906.41;4762480;30;20176;-79
2021/09/18 02:06:02;;;;;;;7.90;4.88;;;;;;;9.39;95.76;101887.91;4776736;30;20550;-79
2021/09/18 02:08:28;;;;;;;6.00;4.07;;;;;;;9.44;96.15;101897.28;4793753;30;20041;-80
2021/09/18 02:10:55;;;;;;;7.72;4.53;;;;;;;9.46;95.79;101908.72;4763774;30;20055;-79
2021/09/18 02:13:21;;;;;;;6.95;4.45;;;;;;;9.48;95.66;101901.38;4780133;30;20142;-80
2021/09/18 02:15:47;;;;;;;6.28;4.30;;;;;;;9.46;95.94;101903.34;4784293;30;20039;-82
2021/09/18 02:18:13;;;;;;;7.95;4.40;;;;;;;9.41;96.28;101896.63;4804719;29;20047;-81
2021/09/18 02:20:40;;;;;;;7.05;4.05;;;;;;;9.50;95.81;101902.00;4799384;30;20071;-79
2021/09/18 02:23:06;;;;;;;6.75;4.22;;;;;;;9.46;95.51;101904.19;4794682;30;20130;-79
2021/09/18 02:25:32;;;;;;;8.30;4.35;;;;;;;9.40;95.83;101894.97;4778269;30;20035;-79
2021/09/18 02:27:57;;;;;;;5.70;4.50;;;;;;;9.39;95.76;101892.44;4778039;30;20369;-80
2021/09/18 02:30:27;;;;;;;7.32;4.20;;;;;;;9.38;95.76;101896.13;4793469;30;20473;-79
2021/09/18 02:32:53;;;;;;;6.05;4.25;;;;;;;9.44;95.64;101908.03;4793745;29;20107;-78
2021/09/18 02:35:20;;;;;;;6.00;4.50;;;;;;;9.39;95.61;101905.88;4778485;30;20478;-78
2021/09/18 02:37:47;;;;;;;6.35;4.40;;;;;;;9.42;95.75;101913.59;4778010;30;20412;-79
2021/09/18 02:40:14;;;;;;;6.18;4.60;;;;;;;9.28;95.71;101887.38;4793129;30;20039;-79
2021/09/18 02:42:42;;;;;;;8.45;4.85;;;;;;;9.50;95.56;101920.81;4795120;30;20039;-78
2021/09/18 02:45:09;;;;;;;9.20;4.97;;;;;;;9.44;95.70;101913.41;4795605;30;20042;-79
2021/09/18 02:47:34;;;;;;;10.18;4.25;;;;;;;9.48;95.91;101917.47;4793261;30;20043;-80
2021/09/18 02:50:00;;;;;;;5.15;4.22;;;;;;;9.44;95.95;101916.09;4792773;30;20031;-80
2021/09/18 02:52:25;;;;;;;6.10;4.47;;;;;;;9.44;96.25;101914.28;4778463;30;20055;-81
2021/09/18 02:54:51;;;;;;;8.95;4.35;;;;;;;9.37;95.33;101906.03;4797437;30;20074;-79
2021/09/18 02:57:16;;;;;;;6.95;4.55;;;;;;;9.47;95.63;101913.09;4803356;30;20035;-81
2021/09/18 02:59:42;;;;;;;8.07;4.63;;;;;;;9.46;95.64;101916.78;4806156;30;20027;-81
2021/09/18 03:02:08;;;;;;;9.23;4.50;;;;;;;9.43;96.22;101920.63;4804537;30;20039;-79
2021/09/18 03:04:33;;;;;;;7.28;4.10;;;;;;;9.40;95.40;101920.97;4779593;30;20039;-79
2021/09/18 03:06:59;;;;;;;7.20;4.28;;;;;;;9.46;95.84;101931.06;4792439;30;20131;-79
2021/09/18 03:09:25;;;;;;;6.80;4.68;;;;;;;9.43;95.62;101926.00;4777170;30;20067;-79
2021/09/18 03:11:52;;;;;;;6.25;4.45;;;;;;;9.39;95.77;101925.50;4791722;30;20035;-78
2021/09/18 03:14:17;;;;;;;6.28;4.60;;;;;;;9.43;95.27;101923.31;4790635;30;20035;-78
2021/09/18 03:16:43;;;;;;;6.05;3.83;;;;;;;9.46;95.51;101922.16;4793557;30;20046;-80
2021/09/18 03:19:08;;;;;;;5.22;4.22;;;;;;;9.49;96.04;101933.41;4790665;29;20229;-79
2021/09/18 03:21:34;;;;;;;7.63;4.68;;;;;;;9.43;95.55;101927.88;4792615;29;20031;-79
2021/09/18 03:23:59;;;;;;;7.88;4.57;;;;;;;9.48;96.17;101933.59;4793543;30;20465;-79
2021/09/18 03:26:25;;;;;;;7.32;4.63;;;;;;;9.45;95.54;101929.38;4791900;30;20042;-79
2021/09/18 03:28:51;;;;;;;7.28;4.35;;;;;;;9.44;95.48;101929.53;4791476;29;20417;-79
2021/09/18 03:31:19;;;;;;;7.57;4.45;;;;;;;9.50;95.53;101936.94;4792255;30;20432;-79
2021/09/18 03:33:45;;;;;;;7.10;4.50;;;;;;;9.45;95.96;101929.38;4793337;30;20415;-78
2021/09/18 03:36:10;;;;;;;7.45;4.65;;;;;;;9.48;96.33;101933.59;4775636;30;20035;-79
2021/09/18 03:38:36;;;;;;;6.03;4.80;;;;;;;9.51;96.17;101939.47;4792905;29;20058;-79
2021/09/18 03:41:01;;;;;;;8.23;4.53;;;;;;;9.45;95.66;101936.63;4792015;30;20107;-78
2021/09/18 03:43:27;;;;;;;5.00;4.25;;;;;;;9.46;95.96;101943.66;4791786;29;20031;-79
2021/09/18 03:45:52;;;;;;;8.20;4.65;;;;;;;9.39;96.40;101940.78;4793578;30;20046;-78
2021/09/18 03:48:19;;;;;;;5.95;4.22;;;;;;;9.45;95.97;101936.63;4778281;30;20036;-78
2021/09/18 03:50:45;;;;;;;6.43;4.53;;;;;;;9.48;96.17;101933.59;4794671;30;20031;-80
2021/09/18 03:53:10;;;;;;;5.88;4.55;;;;;;;9.49;95.98;101935.28;4796296;30;20043;-80
2021/09/18 03:55:36;;;;;;;5.90;4.60;;;;;;;9.47;96.02;101942.66;4796844;30;20088;-79
2021/09/18 03:58:02;;;;;;;8.15;4.50;;;;;;;9.38;96.10;101926.53;4796964;30;20104;-80
2021/09/18 04:00:27;;;;;;;8.15;4.80;;;;;;;9.47;96.06;101945.31;4800728;30;20031;-80
2021/09/18 04:02:52;;;;;;;5.07;4.30;;;;;;;9.44;96.35;101942.97;4782681;30;20378;-79
2021/09/18 04:05:18;;;;;;;7.20;4.70;;;;;;;9.44;96.27;101937.59;4793520;30;20035;-79
2021/09/18 04:07:43;;;;;;;8.20;4.40;;;;;;;9.46;96.92;101940.97;4776288;30;20508;-80
2021/09/18 04:10:09;;;;;;;11.23;4.40;;;;;;;9.41;96.74;101944.16;4775867;30;20435;-79
2021/09/18 04:12:35;;;;;;;5.82;4.57;;;;;;;9.43;96.29;101938.59;4775852;30;20041;-78
2021/09/18 04:15:00;;;;;;;8.73;4.35;;;;;;;9.43;96.29;101938.59;4774663;30;20110;-79
2021/09/18 04:17:26;;;;;;;7.00;4.30;;;;;;;9.38;96.87;101939.94;4789787;29;20057;-79
2021/09/18 04:19:51;;;;;;;5.22;4.20;;;;;;;9.35;97.02;101923.31;4790927;30;20039;-78
2021/09/18 04:22:17;;;;;;;8.98;4.18;;;;;;;9.41;96.46;101934.25;4789306;29;20035;-80
2021/09/18 04:24:42;;;;;;;5.88;4.60;;;;;;;9.43;96.88;101941.28;4790605;29;20090;-80
2021/09/18 04:27:09;;;;;;;6.68;4.38;;;;;;;9.39;97.17;101933.56;4789332;29;20481;-79
2021/09/18 04:29:34;;;;;;;4.93;4.43;;;;;;;9.43;97.49;101946.66;4791481;30;20035;-79
2021/09/18 04:31:59;;;;;;;7.65;4.60;;;;;;;9.40;97.14;101942.47;4774729;30;20432;-79
2021/09/18 04:34:25;;;;;;;7.95;4.53;;;;;;;9.44;97.44;101957.28;4774185;30;20500;-79
2021/09/18 04:36:51;;;;;;;6.80;4.28;;;;;;;9.37;97.37;101940.09;4790059;30;20031;-79
2021/09/18 04:39:18;;;;;;;7.65;4.43;;;;;;;9.43;97.68;101960.94;4759607;30;20084;-77
2021/09/18 04:41:44;;;;;;;7.05;4.43;;;;;;;9.43;97.87;101960.94;4779123;30;20019;-77
2021/09/18 04:44:09;;;;;;;8.65;4.03;;;;;;;9.41;97.71;101966.50;4774992;29;20035;-78
2021/09/18 04:46:36;;;;;;;6.50;4.88;;;;;;;9.44;97.52;101964.47;4790853;30;20035;-78
2021/09/18 04:49:01;;;;;;;6.88;4.47;;;;;;;9.37;97.24;101948.16;4775099;30;20043;-79
2021/09/18 04:51:27;;;;;;;10.07;4.97;;;;;;;9.44;97.79;101961.78;4790480;29;20043;-78
2021/09/18 04:53:52;;;;;;;7.22;4.53;;;;;;;9.44;98.00;101968.00;4789769;29;20039;-77
2021/09/18 04:56:18;;;;;;;7.40;4.30;;;;;;;9.40;97.70;101963.94;4788720;30;20177;-78
2021/09/18 04:58:45;;;;;;;6.78;4.53;;;;;;;9.43;97.75;101969.00;4789029;29;20038;-78
2021/09/18 05:01:10;;;;;;;6.85;4.55;;;;;;;9.46;97.89;101973.22;4788101;29;20038;-78
2021/09/18 05:03:35;;;;;;;6.38;4.35;;;;;;;9.46;97.88;101973.22;4773293;30;20043;-78
2021/09/18 05:06:01;;;;;;;7.00;4.80;;;;;;;9.41;98.36;101969.19;4772868;30;20091;-78
2021/09/18 05:08:26;;;;;;;6.85;4.40;;;;;;;9.44;97.74;101973.38;4774470;30;20090;-78
2021/09/18 05:10:51;;;;;;;8.13;4.60;;;;;;;9.41;98.27;101966.50;4773822;30;20054;-78
2021/09/18 05:13:17;;;;;;;8.07;4.53;;;;;;;9.45;98.37;101969.69;4774439;30;20043;-79
2021/09/18 05:15:42;;;;;;;8.13;4.85;;;;;;;9.41;98.09;101962.97;4790210;30;20039;-78
2021/09/18 05:18:08;;;;;;;8.38;4.05;;;;;;;9.48;97.87;101973.91;4788421;29;20039;-78
2021/09/18 05:20:33;;;;;;;7.03;4.80;;;;;;;9.48;98.56;101979.28;4789202;29;20042;-78
2021/09/18 05:22:58;;;;;;;6.07;4.65;;;;;;;9.49;98.12;101978.25;4773696;30;20035;-78
2021/09/18 05:25:24;;;;;;;8.25;4.50;;;;;;;9.46;98.64;101975.91;4771047;30;20046;-78
2021/09/18 05:27:49;;;;;;;6.75;4.50;;;;;;;9.33;98.04;101946.81;4772074;30;20451;-77
2021/09/18 05:30:15;;;;;;;6.93;4.35;;;;;;;9.53;98.71;101990.34;4784262;30;20054;-78
2021/09/18 05:32:40;;;;;;;12.32;4.60;;;;;;;9.46;98.29;101973.22;4790562;30;20031;-78
2021/09/18 05:35:07;;;;;;;6.57;4.03;;;;;;;9.51;98.30;101989.69;4759041;30;20102;-78
2021/09/18 05:37:32;;;;;;;8.10;4.88;;;;;;;9.52;97.82;101981.47;4773780;30;20047;-78
2021/09/18 05:39:58;;;;;;;7.90;4.45;;;;;;;9.49;98.23;101983.63;4774880;30;20035;-78
2021/09/18 05:42:23;;;;;;;8.70;4.57;;;;;;;9.58;98.12;101990.72;4774909;30;20038;-78
2021/09/18 05:44:49;;;;;;;5.57;4.13;;;;;;;9.55;98.13;101988.38;4792037;30;20046;-78
2021/09/18 05:47:14;;;;;;;5.40;4.05;;;;;;;9.55;98.02;101994.56;4791874;29;20027;-78
2021/09/18 05:49:39;;;;;;;7.57;4.30;;;;;;;9.59;97.80;101995.91;4793731;29;20063;-78
2021/09/18 05:52:05;;;;;;;8.50;4.32;;;;;;;9.62;97.92;101992.91;4802212;29;20092;-79
2021/09/18 05:54:32;;;;;;;5.22;4.32;;;;;;;9.65;97.66;102007.88;4803536;30;20055;-79
2021/09/18 05:56:57;;;;;;;5.50;4.32;;;;;;;9.67;98.25;102008.56;4794539;30;20035;-78
2021/09/18 05:59:23;;;;;;;5.97;4.47;;;;;;;9.61;98.45;102007.34;4762311;30;20362;-78
2021/09/18 06:01:48;;;;;;;5.15;4.32;;;;;;;9.71;98.10;102011.75;4791847;29;20115;-77
2021/09/18 06:04:13;;;;;;;6.75;4.32;;;;;;;9.72;98.25;102016.97;4761213;30;20050;-78
2021/09/18 06:06:39;;;;;;;6.15;4.18;;;;;;;9.75;98.11;102026.53;4791508;30;20039;-78
2021/09/18 06:09:05;;;;;;;8.98;4.30;;;;;;;9.71;98.25;102012.59;4778776;30;20090;-79
2021/09/18 06:11:31;;;;;;;7.28;4.40;;;;;;;9.74;98.03;102025.72;4793292;29;20037;-78
2021/09/18 06:13:56;;;;;;;6.53;4.18;;;;;;;9.67;98.19;102019.31;4791583;30;20405;-78
2021/09/18 06:16:22;;;;;;;6.97;4.57;;;;;;;9.69;98.13;102019.13;4790927;29;20463;-78
2021/09/18 06:18:49;;;;;;;7.72;4.28;;;;;;;9.62;97.61;102000.13;4776989;30;20463;-78
2021/09/18 06:21:14;;;;;;;4.82;3.90;;;;;;;9.77;98.00;102025.38;4775854;30;20061;-79
2021/09/18 06:23:40;;;;;;;5.43;4.35;;;;;;;9.77;98.03;102025.38;4791168;29;20050;-78
2021/09/18 06:26:09;;;;;;;6.50;4.00;;;;;;;9.79;98.19;102017.97;4794191;29;20089;-79
2021/09/18 06:28:34;;;;;;;6.78;4.25;;;;;;;9.81;97.85;102021.34;4792894;30;20035;-77
2021/09/18 06:31:01;;;;;;;10.05;4.32;;;;;;;9.84;97.45;102023.72;4784117;30;20332;-78
2021/09/18 06:33:27;;;;;;;6.22;4.45;;;;;;;9.91;97.67;102031.13;4794545;30;20039;-78
2021/09/18 06:35:52;;;;;;;8.10;4.25;;;;;;;9.97;97.93;102035.84;4793994;29;20043;-78
2021/09/18 06:38:21;;;;;;;8.00;4.05;;;;;;;9.86;97.46;102023.53;4797166;30;20041;-79
2021/09/18 06:40:52;;;;;;;5.28;4.30;;;;;;;9.90;97.89;102038.34;4797707;29;20390;-78
2021/09/18 06:43:19;;;;;;;12.40;4.80;;;;;;;9.88;97.65;102033.13;4796264;30;20039;-80
2021/09/18 06:45:45;;;;;;;6.50;4.18;;;;;;;9.93;97.70;102037.16;4804032;30;20068;-79
2021/09/18 06:48:10;;;;;;;6.65;4.07;;;;;;;9.97;98.14;102038.53;4803165;30;20161;-78
2021/09/18 06:50:37;;;;;;;5.90;3.92;;;;;;;9.97;97.89;102046.59;4784973;30;20104;-79
2021/09/18 06:53:04;;;;;;;6.47;3.78;;;;;;;9.87;96.98;102022.56;4792875;30;20045;-78
2021/09/18 06:55:30;;;;;;;6.57;4.22;;;;;;;10.07;97.79;102044.59;4791289;30;20572;-79
2021/09/18 06:57:56;;;;;;;5.90;4.22;;;;;;;10.05;97.64;102038.53;4790098;30;20050;-78
2021/09/18 07:00:21;;;;;;;7.20;4.00;;;;;;;10.16;97.60;102043.59;4774685;30;20500;-78
2021/09/18 07:02:47;;;;;;;5.55;3.50;;;;;;;10.15;97.78;102041.09;4790461;29;20081;-79
2021/09/18 07:05:13;;;;;;;5.93;3.90;;;;;;;10.16;97.48;102048.97;4780484;30;20035;-78
2021/09/18 07:07:38;;;;;;;5.95;3.72;;;;;;;10.20;97.22;102058.41;4792000;29;20028;-78
2021/09/18 07:10:04;;;;;;;8.40;3.95;;;;;;;10.23;97.12;102059.91;4791102;30;20096;-78
2021/09/18 07:12:30;;;;;;;6.13;3.90;;;;;;;10.28;97.16;102065.69;4789539;29;20466;-78
2021/09/18 07:14:55;;;;;;;8.50;3.80;;;;;;;10.30;97.36;102072.59;4790050;29;20116;-78
2021/09/18 07:17:21;;;;;;;5.72;4.00;;;;;;;10.28;96.63;102071.06;4781647;30;20043;-79
2021/09/18 07:19:46;;;;;;;8.20;4.40;;;;;;;10.30;96.83;102069.88;4794169;29;20063;-79
2021/09/18 07:22:12;;;;;;;6.85;4.43;;;;;;;10.38;96.51;102068.22;4791886;29;20046;-79
2021/09/18 07:24:37;;;;;;;5.18;3.78;;;;;;;10.48;96.69;102077.81;4790072;30;20043;-81
2021/09/18 07:27:03;;;;;;;6.00;3.88;;;;;;;10.44;96.56;102071.06;4793708;30;20100;-80
2021/09/18 07:29:28;;;;;;;5.80;3.90;;;;;;;10.51;96.72;102077.47;4777505;30;20039;-79
2021/09/18 07:31:56;;;;;;;4.55;3.50;;;;;;;10.53;96.21;102075.47;4792044;29;20038;-81
2021/09/18 07:34:22;;;;;;;6.50;3.80;;;;;;;10.58;96.08;102069.56;4764110;30;20035;-81
2021/09/18 07:36:47;;;;;;;4.90;3.55;;;;;;;10.62;96.09;102067.38;4794003;30;20573;-80
2021/09/18 07:39:13;;;;;;;4.85;3.78;;;;;;;10.66;96.06;102074.97;4794669;29;20069;-79
2021/09/18 07:41:38;;;;;;;7.13;3.70;;;;;;;10.69;95.35;102079.97;4791135;30;20227;-79
2021/09/18 07:44:04;;;;;;;5.93;3.95;;;;;;;10.61;95.65;102065.69;4777875;30;20023;-79
2021/09/18 07:46:30;;;;;;;4.53;3.65;;;;;;;10.70;95.33;102070.09;4793731;29;20462;-78
2021/09/18 07:48:57;;;;;;;4.93;3.30;;;;;;;10.69;95.38;102066.53;4794466;30;20035;-81
2021/09/18 07:51:24;;;;;;;6.40;3.53;;;;;;;10.75;95.30;102073.94;4800187;29;20050;-79
2021/09/18 07:53:49;;;;;;;6.47;3.70;;;;;;;10.75;95.21;102065.84;4801655;30;20050;-80
2021/09/18 07:56:15;;;;;;;6.07;3.70;;;;;;;10.88;94.56;102084.19;4802777;30;20066;-80
2021/09/18 07:58:40;;;;;;;5.13;3.42;;;;;;;10.86;94.77;102074.59;4798075;29;20545;-80
2021/09/18 08:01:06;;;;;;;5.47;3.70;;;;;;;10.91;95.02;102069.53;4799797;30;20039;-79
2021/09/18 08:03:32;;;;;;;6.25;4.10;;;;;;;10.98;94.28;102076.75;4771553;30;20027;-79
2021/09/18 08:05:57;;;;;;;6.25;4.15;;;;;;;10.99;94.70;102083.00;4781208;30;20466;-79
2021/09/18 08:08:23;;;;;;;6.25;3.60;;;;;;;11.12;94.01;102090.53;4794156;30;20046;-79
2021/09/18 08:10:48;;;;;;;7.00;3.63;;;;;;;11.06;93.93;102084.00;4773532;30;20681;-78
2021/09/18 08:13:13;;;;;;;8.93;5.60;;;;;;;11.08;94.05;102090.06;4781858;29;20048;-79
2021/09/18 08:15:39;;;;;;;10.80;4.63;;;;;;;11.11;93.74;102092.41;4763971;30;20099;-79
2021/09/18 08:18:04;;;;;;;8.57;4.18;;;;;;;11.22;93.41;102077.72;4798055;30;20055;-80
2021/09/18 08:20:31;;;;;;;10.73;4.28;;;;;;;11.30;93.51;102093.88;4794116;30;20035;-80
2021/09/18 08:22:56;;;;;;;9.00;4.32;;;;;;;11.51;92.86;102096.00;4783607;30;20035;-80
2021/09/18 08:25:21;;;;;;;6.28;4.43;;;;;;;11.65;92.29;102092.56;4774123;30;20471;-79
2021/09/18 08:27:47;;;;;;;6.07;3.90;;;;;;;11.75;91.98;102092.38;4784276;29;20119;-80
2021/09/18 08:30:13;;;;;;;6.47;4.22;;;;;;;11.73;92.03;102089.88;4778930;30;20114;-80
2021/09/18 08:32:39;;;;;;;7.15;4.00;;;;;;;11.94;91.98;102096.53;4791869;30;20034;-82
2021/09/18 08:35:06;;;;;;;8.68;5.20;;;;;;;11.86;91.58;102088.50;4798114;30;20483;-81
2021/09/18 08:37:31;;;;;;;7.90;4.20;;;;;;;12.10;91.20;102098.31;4793088;30;20023;-84
2021/09/18 08:39:58;;;;;;;4.85;3.13;;;;;;;12.18;91.01;102099.09;4807660;30;20096;-81
2021/09/18 08:42:24;;;;;;;7.97;3.50;;;;;;;12.06;90.76;102091.59;4799377;30;20168;-81
2021/09/18 08:44:50;;;;;;;5.60;3.58;;;;;;;12.07;90.56;102095.97;4772489;30;20094;-80
2021/09/18 08:47:16;;;;;;;4.80;3.20;;;;;;;12.18;90.61;102099.09;4805536;30;20043;-81
2021/09/18 08:49:41;;;;;;;5.20;3.42;;;;;;;12.23;90.21;102098.56;4795319;30;20035;-82
2021/09/18 08:52:08;;;;;;;6.32;3.70;;;;;;;12.22;90.17;102100.44;4811864;29;20031;-82
2021/09/18 08:54:40;;;;;;;4.90;3.22;;;;;;;12.29;89.84;102097.84;4806352;29;20047;-81
2021/09/18 08:57:07;;;;;;;5.65;3.08;;;;;;;12.39;90.04;102095.75;4778488;30;20031;-81
2021/09/18 08:59:36;;;;;;;6.68;3.42;;;;;;;12.49;89.21;102111.72;4793972;30;20031;-81
2021/09/18 09:02:17;;;;;;;4.47;3.20;;;;;;;12.39;89.04;102103.03;4793321;30;20062;-81
2021/09/18 09:04:44;;;;;;;6.07;3.45;;;;;;;12.72;88.92;102110.88;4793059;29;20141;-80
2021/09/18 09:07:12;;;;;;;4.55;2.92;;;;;;;12.78;88.15;102110.13;4793685;30;20031;-80
2021/09/18 09:09:51;;;;;;;5.60;3.42;;;;;;;13.00;88.15;102114.66;4791411;29;20108;-81
2021/09/18 09:12:46;;;;;;;5.18;3.15;;;;;;;12.94;86.43;102096.47;4777702;30;20031;-79
2021/09/18 09:15:24;;;;;;;7.75;3.30;;;;;;;13.08;86.59;102105.66;4776173;30;20200;-80
2021/09/18 09:17:52;;;;;;;8.73;3.25;;;;;;;13.37;86.83;102108.41;4792880;29;20035;-80
2021/09/18 09:20:23;;;;;;;5.03;3.22;;;;;;;13.43;85.29;102109.53;4791354;30;20096;-80
2021/09/18 09:22:50;;;;;;;3.35;2.67;;;;;;;13.40;84.04;102104.50;4791749;30;20038;-80
2021/09/18 09:25:29;;;;;;;3.15;2.72;;;;;;;13.39;82.20;102108.25;4761155;29;20043;-80
2021/09/18 09:27:56;;;;;;;4.35;3.10;;;;;;;13.77;83.38;102103.53;4790496;30;20031;-80
2021/09/18 09:30:29;;;;;;;4.10;2.70;;;;;;;13.93;81.23;102105.19;4791317;29;20042;-79
2021/09/18 09:32:55;;;;;;;4.63;2.78;;;;;;;13.97;80.84;102108.38;4791097;29;20038;-80
2021/09/18 09:35:20;;;;;;;5.15;2.60;;;;;;;13.87;80.33;102108.66;4776525;30;20031;-81
2021/09/18 09:37:54;;;;;;;4.82;3.00;;;;;;;14.15;80.24;102114.22;4775133;30;20043;-80
2021/09/18 09:40:49;;;;;;;8.32;3.08;;;;;;;13.93;79.87;102110.63;4791883;30;20506;-80
2021/09/18 09:43:17;;;;;;;4.85;2.97;;;;;;;14.06;79.26;102110.78;4762021;30;20043;-80
2021/09/18 09:45:43;;;;;;;4.18;3.00;;;;;;;14.13;79.23;102112.72;4775703;30;20031;-80
2021/09/18 09:48:11;;;;;;;5.97;2.67;;;;;;;14.21;78.74;102110.75;4789358;30;20499;-80
2021/09/18 09:50:40;;;;;;;4.45;3.13;;;;;;;14.20;78.14;102116.34;4774640;30;20123;-81
2021/09/18 09:53:20;;;;;;;4.57;2.85;;;;;;;14.31;77.26;102113.16;4791273;30;20035;-80
2021/09/18 09:55:46;;;;;;;4.80;2.58;;;;;;;14.28;77.59;102102.69;4794662;30;20074;-79
2021/09/18 09:58:12;;;;;;;4.80;2.60;;;;;;;14.28;76.11;102100.00;4793533;30;20043;-81
2021/09/18 10:00:51;;;;;;;3.60;2.72;;;;;;;14.25;73.91;102114.75;4781915;30;20096;-81
2021/09/18 10:03:23;;;;;;;4.22;3.00;;;;;;;14.26;75.58;102108.28;4805925;29;20037;-80
2021/09/18 10:05:50;;;;;;;3.33;2.70;;;;;;;14.40;74.77;102109.25;4797166;30;20060;-80
2021/09/18 10:08:21;;;;;;;4.95;2.63;;;;;;;14.28;74.42;102108.13;4794297;30;20031;-81
2021/09/18 10:10:46;;;;;;;3.90;3.03;;;;;;;14.56;75.34;102095.50;4795491;30;20043;-80
2021/09/18 10:13:13;;;;;;;4.75;2.85;;;;;;;14.73;75.04;102106.06;4795651;29;20410;-81
2021/09/18 10:15:38;;;;;;;5.60;3.10;;;;;;;14.72;74.96;102099.81;4795486;30;20047;-80
2021/09/18 10:18:05;;;;;;;7.68;3.00;;;;;;;14.77;75.57;102113.63;4795911;30;20035;-81
2021/09/18 10:23:19;;;;;;;5.35;2.78;;;;;;;14.68;75.49;102108.53;4797528;30;20050;-81
2021/09/18 10:25:58;;;;;;;9.90;3.13;;;;;;;14.62;74.99;102101.19;4766798;30;20069;-80
2021/09/18 10:28:47;;;;;;;3.92;2.70;;;;;;;14.80;75.00;102110.53;4780334;30;20130;-79
2021/09/18 10:31:12;;;;;;;4.05;2.63;;;;;;;14.85;74.75;102106.41;4780721;30;20035;-80
2021/09/18 10:33:46;;;;;;;5.72;2.53;;;;;;;14.95;72.56;102109.59;4797004;30;20102;-80
2021/09/18 10:36:22;;;;;;;5.20;2.37;;;;;;;14.85;72.08;102109.94;4795640;29;20084;-80
2021/09/18 10:39:07;;;;;;;3.70;2.20;;;;;;;14.72;70.01;102096.28;4799535;30;20758;-81
2021/09/18 10:42:03;;;;;;;3.80;2.47;;;;;;;14.70;68.45;102111.88;4783345;30;20024;-79
2021/09/18 10:44:57;;;;;;;3.25;2.10;;;;;;;14.48;68.02;102111.03;4771731;30;20150;-81
2021/09/18 10:47:47;;;;;;;4.15;2.28;;;;;;;14.69;68.79;102113.75;4785406;30;20047;-80
2021/09/18 10:50:22;;;;;;;3.08;2.22;;;;;;;14.63;68.95;102114.53;4785634;30;20110;-83
2021/09/18 10:53:06;;;;;;;4.10;2.50;;;;;;;14.82;70.55;102121.16;4806922;30;20411;-81
2021/09/18 10:55:57;;;;;;;3.83;2.50;;;;;;;14.74;70.40;102114.03;4805793;30;20133;-82
2021/09/18 10:58:25;;;;;;;2.95;2.40;;;;;;;14.80;72.75;102106.97;4795649;30;20015;-84
2021/09/18 11:01:01;;;;;;;3.20;2.60;;;;;;;14.69;71.17;102112.91;4807338;30;20042;-83
2021/09/18 11:04:00;;;;;;;4.88;2.50;;;;;;;14.45;71.92;102119.53;4805630;29;20028;-82
2021/09/18 11:06:40;;;;;;;4.60;2.40;;;;;;;14.46;71.89;102116.63;4793008;29;20035;-83
2021/09/18 11:09:06;;;;;;;2.60;2.40;;;;;;;14.62;72.90;102121.00;4794074;29;20044;-82
2021/09/18 11:11:32;;;;;;;5.25;2.45;;;;;;;14.60;72.51;102133.03;4806148;29;20055;-82
2021/09/18 11:14:00;;;;;;;3.25;2.35;;;;;;;14.43;70.85;102113.47;4795728;30;20035;-82
2021/09/18 11:16:31;;;;;;;3.60;2.50;;;;;;;14.57;70.27;102126.16;4781906;30;20181;-82
2021/09/18 11:18:58;;;;;;;7.60;4.13;;;;;;;14.48;70.01;102125.41;4799480;30;20455;-82
2021/09/18 11:21:25;;;;;;;35.03;20.08;;;;;;;14.59;70.32;102134.09;4794039;30;20031;-82
2021/09/18 11:23:53;;;;;;;11.80;8.40;;;;;;;14.90;70.76;102122.91;4801121;29;20031;-80
2021/09/18 11:26:38;;;;;;;4.85;2.90;;;;;;;14.87;67.71;102126.03;4799361;29;20031;-83
2021/09/18 11:29:29;;;;;;;3.85;2.15;;;;;;;14.93;69.72;102128.78;4789102;30;20019;-82
2021/09/18 11:32:21;;;;;;;4.90;2.42;;;;;;;15.04;67.13;102119.28;4782593;30;20089;-81
2021/09/18 11:34:55;;;;;;;3.50;2.60;;;;;;;15.14;68.85;102124.34;4787059;30;20031;-83